Poynor, Texas
Current Conditions -  °F | °C
As of 8:35 PM on Wednesday 17 Dec 2014 (Local Time) from KF44 Reporting Station
Moderate Rain Moderate Rain  
Wind Chill: 42°   Ceiling: 1900
Heat Index: 45°   Visibility: 10mi
Dew Point: 43°   Wind: 5mph
Humidity: 93%   Direction: 70°ENE
Pressure: 30.15"   Gusts: NA
Location:  32.07°N, 95.6°W
Report Text: KF44 180235Z AUTO 07004KT 10SM RA BKN019 OVC025 07/06 A3015 RMK AO2 P0001
Loading
Personal Weather Stations






























Interactive Weather Map New forecast layout! Learn more

10-Day Weather Forecast

Advertisements
Track Severe Weather on mobile